Time;durP1;ratioP1;P1;durP2;ratioP2;P2;SDS_P1;SDS_P2;PMS_P1;PMS_P2;Temp;Humidity;BMP_temperature;BMP_pressure;BME280_temperature;BME280_humidity;BME280_pressure;Samples;Min_cycle;Max_cycle;Signal;HPM_P1;HPM_P2
2023/02/27 00:02:11;;;;;;;7.57;3.25;;;;;;;-3.94;81.51;97651.78;5068502;28;20047;-57
2023/02/27 00:04:37;;;;;;;5.00;1.75;;;;;;;-3.88;81.20;97653.81;5074894;28;20693;-58
2023/02/27 00:07:04;;;;;;;2.35;1.20;;;;;;;-3.96;81.72;97648.44;5066949;28;20045;-57
2023/02/27 00:09:30;;;;;;;5.72;2.10;;;;;;;-3.95;81.68;97650.09;5069211;28;20044;-58
2023/02/27 00:11:56;;;;;;;2.38;1.40;;;;;;;-3.96;81.71;97649.28;5061955;28;20036;-57
2023/02/27 00:14:23;;;;;;;2.15;1.33;;;;;;;-3.98;82.94;97647.78;5074000;28;20085;-56
2023/02/27 00:16:50;;;;;;;5.50;1.70;;;;;;;-4.01;82.99;97648.09;5070861;28;20047;-57
2023/02/27 00:19:16;;;;;;;3.42;1.20;;;;;;;-4.03;82.24;97656.16;5069325;28;20132;-58
2023/02/27 00:21:46;;;;;;;5.43;2.03;;;;;;;-4.01;82.69;97654.22;5073541;28;20064;-58
2023/02/27 00:24:13;;;;;;;5.03;2.70;;;;;;;-4.06;82.57;97649.38;5076665;28;20465;-58
2023/02/27 00:26:39;;;;;;;3.65;1.42;;;;;;;-4.14;83.45;97651.94;5068965;28;20048;-58
2023/02/27 00:29:06;;;;;;;4.38;1.70;;;;;;;-4.21;83.42;97645.59;5076052;28;20105;-56
2023/02/27 00:31:33;;;;;;;2.45;1.10;;;;;;;-4.35;83.60;97647.78;5063056;28;20094;-58
2023/02/27 00:34:00;;;;;;;3.90;1.48;;;;;;;-4.29;84.94;97642.84;5067241;28;20041;-58
2023/02/27 00:36:26;;;;;;;9.95;3.13;;;;;;;-4.35;84.67;97639.03;5068369;28;20072;-59
2023/02/27 00:38:53;;;;;;;4.70;2.22;;;;;;;-4.36;84.90;97632.91;5068095;28;20505;-57
2023/02/27 00:41:19;;;;;;;3.65;1.70;;;;;;;-4.33;85.14;97639.69;5071679;28;20041;-58
2023/02/27 00:43:46;;;;;;;5.07;2.00;;;;;;;-4.23;85.02;97637.81;5068816;28;20040;-56
2023/02/27 00:46:12;;;;;;;4.68;1.90;;;;;;;-4.10;84.61;97639.22;5066603;28;20047;-56
2023/02/27 00:48:39;;;;;;;4.55;1.85;;;;;;;-4.08;83.57;97637.28;5066956;28;20041;-57
2023/02/27 00:51:07;;;;;;;5.30;2.25;;;;;;;-4.07;83.71;97647.72;5070423;28;20033;-58
2023/02/27 00:53:33;;;;;;;2.80;1.40;;;;;;;-4.10;83.71;97648.00;5069785;28;20036;-57
2023/02/27 00:56:00;;;;;;;6.40;1.60;;;;;;;-4.09;84.67;97647.03;5068361;28;20564;-57
2023/02/27 00:58:26;;;;;;;2.95;1.52;;;;;;;-4.18;83.65;97643.50;5065459;28;20047;-58
2023/02/27 01:00:53;;;;;;;4.43;1.95;;;;;;;-4.21;84.64;97640.28;5067052;28;20044;-56
2023/02/27 01:03:20;;;;;;;6.55;2.25;;;;;;;-4.25;84.71;97645.06;5071406;28;20496;-58
2023/02/27 01:05:46;;;;;;;3.20;1.30;;;;;;;-4.22;84.60;97646.56;5071292;28;20110;-57
2023/02/27 01:08:13;;;;;;;3.28;1.40;;;;;;;-4.26;86.10;97640.75;5073803;28;20063;-58
2023/02/27 01:10:39;;;;;;;3.65;1.75;;;;;;;-4.20;85.48;97634.03;5072225;28;20620;-57
2023/02/27 01:13:06;;;;;;;3.72;1.60;;;;;;;-4.26;85.06;97638.13;5069040;28;20032;-58
2023/02/27 01:15:32;;;;;;;2.85;1.17;;;;;;;-4.27;85.62;97638.25;5059720;28;20074;-57
2023/02/27 01:17:59;;;;;;;2.28;1.50;;;;;;;-4.28;85.64;97639.25;5072584;28;20086;-59
2023/02/27 01:20:27;;;;;;;3.58;1.50;;;;;;;-4.35;85.93;97639.84;5072140;28;20454;-58
2023/02/27 01:22:53;;;;;;;3.58;1.60;;;;;;;-4.35;86.54;97637.19;5067373;28;20086;-56
2023/02/27 01:25:20;;;;;;;3.17;1.40;;;;;;;-4.33;87.02;97632.59;5069949;28;20090;-58
2023/02/27 01:27:46;;;;;;;3.67;1.67;;;;;;;-4.30;86.33;97639.41;5067996;28;20048;-58
2023/02/27 01:30:15;;;;;;;3.95;1.65;;;;;;;-4.35;86.40;97631.09;5073341;28;20058;-58
2023/02/27 01:32:43;;;;;;;3.13;1.50;;;;;;;-4.39;86.98;97629.72;5064923;28;20036;-58
2023/02/27 01:35:10;;;;;;;4.10;1.90;;;;;;;-4.38;87.10;97623.47;5070129;28;20079;-56
2023/02/27 01:37:36;;;;;;;4.22;2.05;;;;;;;-4.42;87.59;97622.94;5065616;28;20094;-58
2023/02/27 01:40:05;;;;;;;2.45;1.40;;;;;;;-4.35;87.58;97616.03;5063378;28;20060;-58
2023/02/27 01:42:32;;;;;;;4.05;1.50;;;;;;;-4.22;87.77;97620.97;5066204;28;19921;-56
2023/02/27 01:45:32;;;;;;;5.65;1.90;;;;;;;-4.20;87.06;97620.81;5064284;28;20041;-57
2023/02/27 01:48:15;;;;;;;2.78;1.52;;;;;;;-4.25;87.50;97610.69;5061132;28;20403;-58
2023/02/27 01:50:48;;;;;;;2.95;1.70;;;;;;;-4.19;87.62;97617.19;5067540;28;20048;-58
2023/02/27 01:53:17;;;;;;;4.22;1.63;;;;;;;-4.22;88.04;97620.13;5067697;28;20060;-58
2023/02/27 01:55:45;;;;;;;2.60;1.60;;;;;;;-4.11;88.04;97625.19;5065519;28;20594;-55
2023/02/27 01:58:14;;;;;;;1.80;1.30;;;;;;;-4.19;87.95;97607.44;5070179;28;20066;-55
2023/02/27 02:00:40;;;;;;;5.72;1.75;;;;;;;-4.10;88.17;97605.69;5068149;28;20138;-57
2023/02/27 02:03:25;;;;;;;5.30;1.88;;;;;;;-4.09;87.94;97610.00;5049688;28;20443;-58
2023/02/27 02:05:54;;;;;;;4.40;1.95;;;;;;;-4.05;87.65;97611.34;5070505;28;20060;-57
2023/02/27 02:08:23;;;;;;;3.88;1.42;;;;;;;-4.16;87.99;97606.31;5062786;28;20082;-56
2023/02/27 02:10:52;;;;;;;3.10;1.75;;;;;;;-4.21;88.98;97616.50;5066900;28;20037;-58
2023/02/27 02:13:20;;;;;;;5.15;2.03;;;;;;;-4.19;88.88;97615.38;5067001;28;20648;-56
2023/02/27 02:15:58;;;;;;;4.25;1.80;;;;;;;-4.18;88.95;97621.50;5065998;28;20046;-57
2023/02/27 02:18:57;;;;;;;3.05;1.60;;;;;;;-4.21;88.93;97616.50;5061048;28;20048;-58
2023/02/27 02:21:39;;;;;;;3.47;1.88;;;;;;;-4.26;89.61;97618.78;5045494;28;20057;-58
2023/02/27 02:24:19;;;;;;;5.10;1.10;;;;;;;-4.32;89.54;97618.41;5074432;28;20535;-58
2023/02/27 02:27:02;;;;;;;4.05;2.42;;;;;;;-4.32;89.70;97617.56;5065240;28;20055;-57
2023/02/27 02:29:52;;;;;;;2.55;1.50;;;;;;;-4.35;89.92;97620.53;5073463;28;20044;-56
2023/02/27 02:32:41;;;;;;;3.65;1.63;;;;;;;-4.38;90.54;97620.81;5066140;28;20140;-56
2023/02/27 02:35:45;;;;;;;4.22;1.75;;;;;;;-4.39;90.11;97616.50;5064327;28;20050;-58
2023/02/27 02:38:36;;;;;;;3.55;1.88;;;;;;;-4.41;90.48;97618.47;5066326;28;20040;-57
2023/02/27 02:41:21;;;;;;;;;;;;;;;-4.35;90.44;97615.22;5063683;28;20517;-58
2023/02/27 02:44:03;;;;;;;2.30;1.52;;;;;;;-4.37;90.89;97614.53;5070150;28;19970;-57
2023/02/27 02:47:04;;;;;;;2.80;1.40;;;;;;;-4.31;90.45;97619.25;5064696;28;20040;-58
2023/02/27 02:49:54;;;;;;;4.95;2.05;;;;;;;-4.41;90.52;97624.59;5071477;28;20044;-57
2023/02/27 02:52:34;;;;;;;4.15;1.85;;;;;;;-4.44;91.09;97625.72;5069726;28;20035;-58
2023/02/27 02:55:14;;;;;;;5.00;1.75;;;;;;;-4.45;91.62;97624.03;5063771;28;20044;-54
2023/02/27 02:58:05;;;;;;;3.53;1.60;;;;;;;-4.50;91.43;97628.94;5074295;28;20283;-57
2023/02/27 03:00:38;;;;;;;3.63;1.63;;;;;;;-4.48;91.89;97634.09;5068452;28;20055;-56
2023/02/27 03:03:21;;;;;;;6.25;1.95;;;;;;;-4.42;91.33;97635.31;5059185;28;20036;-58
2023/02/27 03:05:51;;;;;;;;;;;;;;;-4.47;91.55;97635.75;5068640;28;20048;-58
2023/02/27 03:08:23;;;;;;;4.18;1.42;;;;;;;-4.47;92.67;97641.03;5065717;28;19928;-58
2023/02/27 03:10:56;;;;;;;3.80;1.90;;;;;;;-4.41;91.39;97643.09;5063984;28;20446;-59
2023/02/27 03:13:40;;;;;;;5.85;2.28;;;;;;;-4.47;91.36;97633.94;5065210;28;20037;-58
2023/02/27 03:16:24;;;;;;;2.65;1.58;;;;;;;-4.57;91.97;97635.84;5060887;28;20156;-59
2023/02/27 03:18:58;;;;;;;4.57;1.67;;;;;;;-4.59;92.10;97637.78;5064061;28;20036;-57
2023/02/27 03:21:45;;;;;;;3.28;1.50;;;;;;;-4.59;92.45;97632.50;5065900;28;20068;-59
2023/02/27 03:24:19;;;;;;;4.00;1.92;;;;;;;-4.60;92.71;97634.28;5071418;28;20040;-59
2023/02/27 03:26:49;;;;;;;2.70;1.38;;;;;;;-4.61;92.58;97630.00;5071880;28;20185;-59
2023/02/27 03:29:25;;;;;;;2.67;1.70;;;;;;;-4.68;93.02;97631.59;5064825;28;20451;-59
2023/02/27 03:31:57;;;;;;;3.22;1.45;;;;;;;-4.60;92.53;97636.94;5057243;28;20444;-59
2023/02/27 03:34:32;;;;;;;3.15;1.70;;;;;;;-4.64;92.59;97630.28;5057848;28;20044;-58
2023/02/27 03:37:17;;;;;;;4.80;2.05;;;;;;;-4.65;92.96;97639.19;5065989;28;20048;-59
2023/02/27 03:40:09;;;;;;;3.75;1.55;;;;;;;-4.66;92.71;97636.69;5065441;28;20049;-58
2023/02/27 03:42:52;;;;;;;3.88;1.58;;;;;;;-4.64;93.00;97646.13;5032587;28;20123;-59
2023/02/27 03:45:50;;;;;;;2.72;1.52;;;;;;;-4.59;92.48;97649.19;5061921;28;20047;-59
2023/02/27 03:48:16;;;;;;;3.25;1.90;;;;;;;-4.69;92.27;97651.03;5060808;28;20178;-59
2023/02/27 03:50:43;;;;;;;3.25;1.70;;;;;;;-4.68;92.75;97655.38;5063110;28;20120;-59
2023/02/27 03:53:20;;;;;;;4.47;2.00;;;;;;;-4.73;92.82;97657.59;5067952;28;20028;-59
2023/02/27 03:55:49;;;;;;;4.43;1.77;;;;;;;-4.67;93.58;97662.31;5058755;28;20404;-58
2023/02/27 03:58:16;;;;;;;2.70;1.70;;;;;;;-4.73;92.95;97662.88;5058189;28;20591;-59
2023/02/27 04:00:42;;;;;;;2.67;1.30;;;;;;;-4.79;93.87;97659.00;5064937;28;20557;-59
2023/02/27 04:03:10;;;;;;;2.75;1.45;;;;;;;-4.79;93.67;97660.84;5045092;28;20093;-57
2023/02/27 04:05:37;;;;;;;3.50;1.80;;;;;;;-4.73;93.27;97666.38;5073203;28;20086;-59
2023/02/27 04:08:30;;;;;;;3.33;1.85;;;;;;;-4.72;93.52;97661.94;5070379;28;20050;-59
2023/02/27 04:11:30;;;;;;;3.53;1.98;;;;;;;-4.76;93.97;97671.13;5064789;28;20127;-58
2023/02/27 04:14:13;;;;;;;5.25;2.42;;;;;;;-4.75;93.79;97670.94;5058140;28;20121;-57
2023/02/27 04:16:44;;;;;;;5.20;2.00;;;;;;;-4.68;93.67;97670.38;5066594;28;20041;-56
2023/02/27 04:19:14;;;;;;;3.95;1.92;;;;;;;-4.76;93.90;97669.28;5072184;28;20071;-57
2023/02/27 04:22:04;;;;;;;3.20;2.00;;;;;;;-4.83;93.65;97662.97;5062636;28;20045;-58
2023/02/27 04:24:55;;;;;;;3.83;1.98;;;;;;;-4.87;94.14;97678.25;5070113;28;20494;-58
2023/02/27 04:27:55;;;;;;;5.05;1.85;;;;;;;-4.85;94.25;97678.94;5066968;28;20661;-58
2023/02/27 04:30:24;;;;;;;3.03;1.90;;;;;;;-4.84;94.31;97671.84;5066494;28;20610;-57
2023/02/27 04:33:10;;;;;;;6.10;2.58;;;;;;;-4.76;94.24;97671.94;5062973;28;20101;-58
2023/02/27 04:35:50;;;;;;;4.28;1.70;;;;;;;-4.83;94.32;97673.53;5063422;28;20095;-57
2023/02/27 04:38:39;;;;;;;4.03;2.17;;;;;;;-4.80;94.00;97667.13;5065371;28;20119;-60
2023/02/27 04:41:27;;;;;;;4.28;1.65;;;;;;;-4.74;93.48;97672.63;5067390;28;20033;-59
2023/02/27 04:43:56;;;;;;;5.03;2.03;;;;;;;-4.76;93.62;97677.22;5065877;28;20067;-57
2023/02/27 04:46:26;;;;;;;2.90;1.70;;;;;;;-4.66;93.09;97671.06;5064571;28;20125;-58
2023/02/27 04:49:02;;;;;;;3.92;1.90;;;;;;;-4.73;93.89;97673.44;5068840;28;20036;-58
2023/02/27 04:51:38;;;;;;;6.68;2.33;;;;;;;-4.72;94.38;97677.78;5065247;28;20047;-54
2023/02/27 04:54:14;;;;;;;4.68;2.00;;;;;;;-4.74;94.61;97674.44;5067913;28;20070;-59
2023/02/27 04:56:48;;;;;;;8.30;2.38;;;;;;;-4.77;93.63;97666.78;5067916;28;20047;-58
2023/02/27 04:59:25;;;;;;;4.88;2.10;;;;;;;-4.83;94.41;97669.06;5065146;28;20040;-59
2023/02/27 05:02:00;;;;;;;3.45;1.90;;;;;;;-4.78;94.53;97665.13;5068047;28;20124;-58
2023/02/27 05:04:31;;;;;;;5.55;2.13;;;;;;;-4.77;94.07;97677.38;5076730;28;20044;-56
2023/02/27 05:07:00;;;;;;;4.88;1.63;;;;;;;-4.78;94.45;97681.84;5065831;28;20090;-59
2023/02/27 05:09:41;;;;;;;8.20;1.88;;;;;;;-4.76;93.90;97674.59;5069349;28;20068;-59
2023/02/27 05:12:17;;;;;;;4.13;2.00;;;;;;;-4.87;94.45;97683.53;5071956;28;20044;-57
2023/02/27 05:15:06;;;;;;;6.32;3.22;;;;;;;-4.90;94.47;97681.16;5072311;28;20431;-56
2023/02/27 05:17:42;;;;;;;6.55;3.53;;;;;;;-4.86;94.81;97681.72;5068448;28;20044;-57
2023/02/27 05:20:11;;;;;;;8.13;2.75;;;;;;;-4.77;94.20;97693.22;5064856;28;20032;-56
2023/02/27 05:22:49;;;;;;;4.55;2.35;;;;;;;-4.76;93.71;97697.53;5059707;28;20618;-57
2023/02/27 05:25:30;;;;;;;6.55;2.42;;;;;;;-4.70;94.12;97689.88;5068624;28;20078;-58
2023/02/27 05:28:00;;;;;;;;;;;;;;;-4.76;94.09;97697.53;5071651;28;20127;-57
2023/02/27 05:30:27;;;;;;;7.43;3.13;;;;;;;-4.87;94.25;97701.22;5068840;28;19920;-57
2023/02/27 05:33:05;;;;;;;6.38;3.03;;;;;;;-4.85;94.40;97705.38;5069734;28;20399;-58
2023/02/27 05:35:54;;;;;;;7.22;2.70;;;;;;;-4.87;93.73;97701.22;5063783;28;20557;-57
2023/02/27 05:38:30;;;;;;;3.90;1.98;;;;;;;-4.87;93.68;97702.03;5064516;28;20042;-58
2023/02/27 05:41:07;;;;;;;6.10;2.65;;;;;;;-4.89;94.28;97705.78;5058871;28;20651;-59
2023/02/27 05:43:50;;;;;;;8.18;2.45;;;;;;;-4.84;94.45;97704.38;5061319;28;20037;-56
2023/02/27 05:46:23;;;;;;;4.68;2.38;;;;;;;-4.92;95.20;97712.19;5063074;28;20040;-58
2023/02/27 05:48:55;;;;;;;4.30;1.90;;;;;;;-4.90;94.50;97704.94;5068738;28;20075;-58
2023/02/27 05:51:27;;;;;;;4.50;1.83;;;;;;;-4.80;95.63;97714.66;5064763;28;20047;-56
2023/02/27 05:54:01;;;;;;;3.65;1.88;;;;;;;-4.85;94.21;97704.53;5071348;28;20086;-57
2023/02/27 05:56:31;;;;;;;4.07;2.10;;;;;;;-4.72;95.70;97712.94;5061843;28;20071;-58
2023/02/27 05:59:08;;;;;;;4.70;2.08;;;;;;;-4.79;93.98;97709.22;5065007;28;20072;-58
2023/02/27 06:01:34;;;;;;;3.28;2.10;;;;;;;-4.85;94.72;97717.72;5061490;28;20108;-59
2023/02/27 06:04:01;;;;;;;5.03;2.50;;;;;;;-4.85;95.57;97715.94;5071799;28;20491;-59
2023/02/27 06:06:29;;;;;;;4.80;2.42;;;;;;;-4.94;94.09;97708.84;5065457;28;20052;-59
2023/02/27 06:08:55;;;;;;;5.88;1.95;;;;;;;-5.02;94.66;97714.88;5066262;28;20784;-58
2023/02/27 06:11:22;;;;;;;4.57;2.15;;;;;;;-5.00;94.48;97712.09;5067148;28;20036;-58
2023/02/27 06:13:48;;;;;;;5.97;3.17;;;;;;;-4.97;95.28;97717.91;5063508;28;20059;-59
2023/02/27 06:16:15;;;;;;;5.95;2.30;;;;;;;-5.04;94.95;97718.63;5067691;28;20044;-57
2023/02/27 06:18:42;;;;;;;6.88;2.67;;;;;;;-5.10;95.33;97717.38;5064094;28;20048;-60
2023/02/27 06:21:08;;;;;;;5.32;2.15;;;;;;;-5.09;95.35;97713.75;5067123;28;20086;-60
2023/02/27 06:23:35;;;;;;;10.15;2.47;;;;;;;-5.12;96.27;97717.53;5064146;28;20542;-59
2023/02/27 06:26:01;;;;;;;5.60;2.45;;;;;;;-5.06;96.22;97723.25;5065223;28;20062;-59
2023/02/27 06:28:28;;;;;;;5.20;1.98;;;;;;;-5.05;95.94;97727.53;5061520;28;20051;-57
2023/02/27 06:30:55;;;;;;;4.25;2.35;;;;;;;-5.05;96.07;97728.34;5067661;28;20037;-58
2023/02/27 06:33:24;;;;;;;7.25;2.97;;;;;;;-5.05;95.50;97731.00;5069225;28;20131;-60
2023/02/27 06:35:51;;;;;;;5.82;1.83;;;;;;;-4.99;95.58;97732.22;5061980;28;20043;-60
2023/02/27 06:38:18;;;;;;;5.57;2.25;;;;;;;-4.94;95.00;97732.63;5067091;28;20100;-59
2023/02/27 06:40:44;;;;;;;4.03;1.95;;;;;;;-4.91;95.56;97736.81;5069024;28;20048;-59
2023/02/27 06:43:11;;;;;;;5.38;3.40;;;;;;;-4.91;95.16;97736.81;5070361;28;20041;-60
2023/02/27 06:45:37;;;;;;;7.85;2.13;;;;;;;-4.93;95.35;97734.31;5065180;28;20049;-56
2023/02/27 06:48:04;;;;;;;5.10;1.95;;;;;;;-4.83;94.41;97739.56;5074242;28;20115;-59
2023/02/27 06:50:31;;;;;;;5.13;2.58;;;;;;;-4.83;94.59;97732.47;5067232;28;20119;-59
2023/02/27 06:52:57;;;;;;;5.15;2.20;;;;;;;-4.83;94.82;97737.75;5059586;28;20041;-59
2023/02/27 06:55:24;;;;;;;4.88;2.67;;;;;;;-4.74;95.19;97733.41;5063594;28;20126;-58
2023/02/27 06:57:51;;;;;;;7.22;2.70;;;;;;;-4.59;94.46;97738.22;5070181;28;20051;-58
2023/02/27 07:00:18;;;;;;;4.22;2.38;;;;;;;-4.57;93.66;97737.06;5066096;28;20060;-57
2023/02/27 07:02:44;;;;;;;5.53;2.42;;;;;;;-4.52;93.58;97739.28;5067094;28;20048;-58
2023/02/27 07:05:11;;;;;;;5.88;2.80;;;;;;;-4.51;93.73;97740.94;5056623;28;20039;-59
2023/02/27 07:07:38;;;;;;;6.85;3.75;;;;;;;-4.44;93.76;97744.69;5075977;28;20044;-60
2023/02/27 07:10:14;;;;;;;8.35;4.95;;;;;;;-4.40;93.23;97741.72;5074065;28;20044;-59
2023/02/27 07:12:41;;;;;;;8.55;5.20;;;;;;;-4.28;93.01;97737.91;5067824;28;20094;-58
2023/02/27 07:15:08;;;;;;;8.70;2.72;;;;;;;-4.27;92.49;97744.03;5063431;28;20043;-59
2023/02/27 07:17:34;;;;;;;6.30;3.10;;;;;;;-4.23;92.77;97745.41;5057807;28;20044;-59
2023/02/27 07:20:01;;;;;;;5.47;3.10;;;;;;;-4.16;92.46;97746.47;5062262;28;20047;-57
2023/02/27 07:22:27;;;;;;;6.28;2.83;;;;;;;-4.08;92.69;97746.56;5061135;28;20123;-58
2023/02/27 07:24:54;;;;;;;6.18;2.78;;;;;;;-3.92;92.24;97753.00;5061626;28;20048;-59
2023/02/27 07:27:20;;;;;;;4.78;3.10;;;;;;;-3.79;90.82;97750.81;5059992;28;20036;-60
2023/02/27 07:29:47;;;;;;;6.82;3.28;;;;;;;-3.78;90.31;97751.66;5061032;28;20048;-59
2023/02/27 07:32:14;;;;;;;5.05;2.90;;;;;;;-3.82;90.08;97753.78;5061008;28;20771;-59
2023/02/27 07:34:40;;;;;;;4.55;2.92;;;;;;;-3.67;89.89;97753.22;5061477;28;20043;-59
2023/02/27 07:37:07;;;;;;;7.28;3.65;;;;;;;-3.71;89.65;97752.72;5060602;28;20617;-59
2023/02/27 07:39:33;;;;;;;6.05;2.67;;;;;;;-3.74;89.55;97760.09;5057505;28;20532;-59
2023/02/27 07:42:00;;;;;;;5.60;2.60;;;;;;;-3.66;89.60;97753.09;5067908;28;20071;-60
2023/02/27 07:44:26;;;;;;;4.65;2.72;;;;;;;-3.63;88.84;97753.75;5069486;28;20422;-60
2023/02/27 07:46:53;;;;;;;4.85;2.28;;;;;;;-3.56;89.23;97762.75;5066678;28;20040;-60
2023/02/27 07:49:19;;;;;;;4.18;2.60;;;;;;;-3.53;88.25;97754.53;5067660;28;20692;-57
2023/02/27 07:51:46;;;;;;;14.63;3.50;;;;;;;-3.41;87.83;97755.94;5058461;28;20094;-59
2023/02/27 07:54:12;;;;;;;8.50;2.65;;;;;;;-3.41;86.67;97757.75;5063523;28;20040;-60
2023/02/27 07:56:39;;;;;;;7.53;2.85;;;;;;;-3.31;86.50;97758.50;5071538;28;20052;-59
2023/02/27 07:59:05;;;;;;;3.50;1.95;;;;;;;-3.28;86.09;97766.13;5070047;28;20059;-58
2023/02/27 08:01:32;;;;;;;5.15;2.30;;;;;;;-3.23;84.97;97755.09;5071050;28;20462;-59
2023/02/27 08:03:58;;;;;;;6.22;2.88;;;;;;;-3.27;85.05;97759.84;5066700;28;20071;-58
2023/02/27 08:06:25;;;;;;;4.95;2.92;;;;;;;-3.20;83.92;97749.50;5067360;28;20068;-60
2023/02/27 08:08:52;;;;;;;5.75;2.70;;;;;;;-3.16;83.33;97756.13;5070902;28;20041;-58
2023/02/27 08:11:18;;;;;;;4.95;2.45;;;;;;;-3.07;84.01;97757.00;5066344;28;20040;-59
2023/02/27 08:13:45;;;;;;;4.97;1.95;;;;;;;-2.96;83.53;97755.09;5066030;28;20044;-59
2023/02/27 08:16:29;;;;;;;3.25;2.08;;;;;;;-2.84;82.60;97750.38;5070971;28;20049;-59
2023/02/27 08:18:58;;;;;;;6.35;2.67;;;;;;;-2.78;82.31;97766.47;5068029;28;20298;-60
2023/02/27 08:21:25;;;;;;;3.80;2.30;;;;;;;-2.67;82.38;97756.59;5062760;28;20055;-59
2023/02/27 08:23:53;;;;;;;4.93;2.80;;;;;;;-2.71;81.66;97768.50;5066283;28;20438;-58
2023/02/27 08:26:20;;;;;;;4.43;2.15;;;;;;;-2.66;81.12;97767.03;5064699;28;20086;-60
2023/02/27 08:28:46;;;;;;;4.57;2.58;;;;;;;-2.66;80.42;97761.72;5074532;28;20461;-60
2023/02/27 08:31:13;;;;;;;9.05;2.78;;;;;;;-2.60;80.91;97770.88;5066174;28;20064;-60
2023/02/27 08:33:40;;;;;;;5.43;2.63;;;;;;;-2.46;79.85;97771.28;5073922;28;20600;-59
2023/02/27 08:36:07;;;;;;;4.20;2.50;;;;;;;-2.54;79.18;97772.88;5061866;28;20037;-60
2023/02/27 08:38:33;;;;;;;6.93;2.72;;;;;;;-2.57;78.44;97775.03;5070472;28;20563;-59
2023/02/27 08:41:00;;;;;;;4.60;2.25;;;;;;;-2.44;78.45;97771.97;5065807;28;20044;-58
2023/02/27 08:43:26;;;;;;;8.73;2.40;;;;;;;-2.33;77.78;97768.19;5067833;28;20051;-56
2023/02/27 08:45:53;;;;;;;4.70;2.30;;;;;;;-2.35;78.33;97771.81;5066092;28;20036;-58
2023/02/27 08:48:19;;;;;;;6.07;2.50;;;;;;;-2.18;78.30;97771.06;5065500;28;20063;-58
2023/02/27 08:50:46;;;;;;;4.10;1.92;;;;;;;-2.15;77.29;97778.69;5065903;28;20127;-58
2023/02/27 08:53:13;;;;;;;7.53;2.40;;;;;;;-2.16;76.16;97772.56;5064847;28;20477;-60
2023/02/27 08:55:41;;;;;;;5.03;2.47;;;;;;;-2.09;76.06;97778.88;5069707;28;20048;-59
2023/02/27 08:58:08;;;;;;;4.65;2.30;;;;;;;-2.06;75.65;97782.22;5069826;28;20082;-57
2023/02/27 09:00:35;;;;;;;3.80;1.88;;;;;;;-2.00;74.72;97784.22;5068669;28;20072;-60
2023/02/27 09:03:02;;;;;;;5.43;2.45;;;;;;;-1.85;74.64;97782.59;5069457;28;20526;-59
2023/02/27 09:05:28;;;;;;;5.10;2.47;;;;;;;-1.77;74.44;97784.44;5066755;28;20119;-58
2023/02/27 09:07:55;;;;;;;9.20;3.60;;;;;;;-1.65;73.57;97784.97;5061971;28;20036;-60
2023/02/27 09:10:21;;;;;;;4.50;2.28;;;;;;;-1.59;72.75;97781.66;5064174;28;20040;-59
2023/02/27 09:12:48;;;;;;;4.07;2.28;;;;;;;-1.52;71.80;97784.50;5065648;28;20471;-59
2023/02/27 09:15:15;;;;;;;7.82;2.38;;;;;;;-1.50;71.30;97785.16;5063927;28;20353;-60
2023/02/27 09:17:41;;;;;;;4.38;1.98;;;;;;;-1.48;71.12;97784.97;5065482;28;20044;-59
2023/02/27 09:20:09;;;;;;;9.10;2.90;;;;;;;-1.41;70.49;97785.19;5065495;28;20036;-57
2023/02/27 09:22:36;;;;;;;3.72;2.03;;;;;;;-1.34;70.50;97789.66;5070037;28;20787;-59
2023/02/27 09:25:03;;;;;;;6.45;2.38;;;;;;;-1.31;69.59;97780.53;5073087;28;20458;-60
2023/02/27 09:27:30;;;;;;;3.80;2.30;;;;;;;-1.31;69.88;97785.84;5071504;28;20048;-60
2023/02/27 09:29:57;;;;;;;7.85;2.35;;;;;;;-1.18;69.54;97794.13;5074944;28;20036;-60
2023/02/27 09:32:24;;;;;;;4.78;2.28;;;;;;;-1.03;69.09;97792.66;5064656;28;20094;-59
2023/02/27 09:34:51;;;;;;;5.93;2.30;;;;;;;-0.99;67.43;97794.78;5068775;28;20037;-57
2023/02/27 09:37:18;;;;;;;6.93;2.13;;;;;;;-1.01;66.83;97804.78;5068754;28;20075;-59
2023/02/27 09:39:44;;;;;;;4.22;2.28;;;;;;;-0.94;66.76;97802.28;5069390;28;20075;-58
2023/02/27 09:42:18;;;;;;;4.05;2.45;;;;;;;-0.86;67.62;97804.94;5063456;28;20044;-59
2023/02/27 09:44:49;;;;;;;4.85;2.08;;;;;;;-0.68;67.28;97798.59;5066561;28;20048;-57
2023/02/27 09:47:36;;;;;;;5.05;2.10;;;;;;;-0.57;66.16;97798.25;5065429;28;20040;-57
2023/02/27 09:50:30;;;;;;;4.20;2.55;;;;;;;-0.57;65.29;97805.38;5065760;28;20763;-60
2023/02/27 09:52:59;;;;;;;14.98;8.00;;;;;;;-0.60;64.49;97808.38;5060515;28;20778;-60
2023/02/27 09:55:29;;;;;;;12.10;4.78;;;;;;;-0.72;63.32;97795.44;5056671;28;20036;-57
2023/02/27 09:58:06;;;;;;;7.35;4.25;;;;;;;-0.67;63.99;97797.56;5058156;28;20068;-59
2023/02/27 10:00:51;;;;;;;6.63;2.35;;;;;;;-0.44;63.24;97812.84;5061949;28;20086;-59
2023/02/27 10:03:30;;;;;;;4.95;2.72;;;;;;;-0.42;62.23;97806.34;5060148;28;20536;-59
2023/02/27 10:06:14;;;;;;;5.35;1.98;;;;;;;-0.43;61.66;97803.84;5056773;28;20039;-58
2023/02/27 10:08:58;;;;;;;4.05;2.17;;;;;;;-0.44;61.67;97813.66;5062713;28;20047;-59
2023/02/27 10:11:55;;;;;;;4.13;2.13;;;;;;;-0.39;61.52;97810.50;5060138;28;20041;-60
2023/02/27 10:14:38;;;;;;;4.13;1.98;;;;;;;-0.20;61.00;97813.75;5060546;28;20409;-58
2023/02/27 10:17:12;;;;;;;5.68;2.15;;;;;;;-0.06;59.56;97815.72;5065542;28;20047;-59
2023/02/27 10:19:43;;;;;;;4.28;2.25;;;;;;;-0.01;59.54;97816.03;5060267;28;20382;-60
2023/02/27 10:22:18;;;;;;;4.85;2.30;;;;;;;-0.07;59.50;97815.88;5059013;28;20055;-57
2023/02/27 10:24:59;;;;;;;3.22;1.70;;;;;;;-0.19;59.41;97820.75;5056292;28;20040;-57
2023/02/27 10:27:25;;;;;;;3.50;1.98;;;;;;;0.02;59.86;97816.66;5064059;28;20067;-59
2023/02/27 10:29:57;;;;;;;3.63;1.75;;;;;;;0.01;59.71;97820.34;5059979;28;20036;-59
2023/02/27 10:32:30;;;;;;;2.88;1.67;;;;;;;0.05;58.95;97813.66;5064156;28;20040;-56
2023/02/27 10:35:07;;;;;;;3.35;1.75;;;;;;;0.09;57.71;97821.13;5056062;28;20111;-57
2023/02/27 10:37:37;;;;;;;6.18;2.10;;;;;;;0.01;58.05;97825.66;5052191;28;20767;-60
2023/02/27 10:40:05;;;;;;;2.60;1.58;;;;;;;0.28;58.71;97824.38;5063401;28;20040;-59
2023/02/27 10:42:36;;;;;;;2.90;1.85;;;;;;;0.35;57.45;97813.84;5051569;28;20040;-60
2023/02/27 10:45:05;;;;;;;3.88;1.80;;;;;;;0.11;57.61;97831.63;5062422;28;20043;-59
2023/02/27 10:47:32;;;;;;;4.50;2.10;;;;;;;0.08;58.24;97831.97;5056251;28;20080;-60
2023/02/27 10:49:59;;;;;;;3.00;1.50;;;;;;;0.31;57.19;97824.03;5057887;28;20539;-58
2023/02/27 10:52:25;;;;;;;3.88;1.90;;;;;;;0.27;57.01;97821.88;5063671;28;20048;-58
2023/02/27 10:54:52;;;;;;;4.30;1.90;;;;;;;0.19;57.27;97817.44;5062892;28;20044;-59
2023/02/27 10:57:26;;;;;;;5.75;2.60;;;;;;;0.31;56.94;97834.69;5057008;28;20126;-59
2023/02/27 10:59:58;;;;;;;5.10;1.90;;;;;;;0.61;56.74;97815.34;5066218;28;20039;-58
2023/02/27 11:02:37;;;;;;;2.92;1.58;;;;;;;0.62;56.72;97817.84;5058757;28;20041;-59
2023/02/27 11:05:06;;;;;;;4.55;2.08;;;;;;;0.46;56.41;97823.28;5068976;28;20117;-59
2023/02/27 11:07:37;;;;;;;4.72;2.33;;;;;;;0.55;55.60;97811.53;5063296;28;20131;-58
2023/02/27 11:10:17;;;;;;;4.45;2.38;;;;;;;0.53;55.86;97818.91;5067239;28;20090;-59
2023/02/27 11:13:05;;;;;;;5.95;2.25;;;;;;;0.70;55.68;97811.63;5068423;28;20036;-58
2023/02/27 11:15:34;;;;;;;5.03;1.95;;;;;;;0.79;55.98;97807.06;5067350;28;20032;-60
2023/02/27 11:18:30;;;;;;;5.75;2.47;;;;;;;0.90;55.93;97806.66;5070575;28;20760;-60
2023/02/27 11:21:20;;;;;;;4.75;2.10;;;;;;;1.15;54.48;97809.09;5071467;28;20102;-57
2023/02/27 11:24:02;;;;;;;4.00;1.75;;;;;;;0.93;53.10;97809.97;5061816;28;20080;-59
2023/02/27 11:26:34;;;;;;;6.20;2.58;;;;;;;0.92;54.92;97803.78;5067768;28;20071;-59
2023/02/27 11:29:12;;;;;;;6.40;2.70;;;;;;;1.05;53.29;97789.84;5062744;28;20048;-59
2023/02/27 11:31:45;;;;;;;8.93;2.80;;;;;;;1.31;53.39;97801.97;5068378;28;20120;-59
2023/02/27 11:34:37;;;;;;;5.20;2.33;;;;;;;1.49;52.09;97787.44;5073814;28;20537;-60
2023/02/27 11:37:22;;;;;;;4.38;1.83;;;;;;;1.45;52.12;97803.00;5076211;28;20051;-59
2023/02/27 11:39:55;;;;;;;3.80;1.60;;;;;;;1.54;50.87;97793.88;5075690;28;20040;-58
2023/02/27 11:42:33;;;;;;;3.92;1.63;;;;;;;1.39;49.53;97787.69;5077603;28;20097;-59
2023/02/27 11:45:04;;;;;;;3.25;1.55;;;;;;;1.57;49.74;97792.69;5071065;28;20036;-60
2023/02/27 11:47:36;;;;;;;5.10;1.70;;;;;;;1.52;50.05;97785.22;5077958;28;20051;-59
2023/02/27 11:50:30;;;;;;;2.63;1.48;;;;;;;1.43;50.02;97781.81;5078979;28;20048;-59
2023/02/27 11:53:14;;;;;;;4.47;1.88;;;;;;;1.56;51.37;97799.84;5074775;28;20032;-59
2023/02/27 11:55:42;;;;;;;2.60;1.35;;;;;;;1.56;49.51;97786.50;5074231;28;20036;-59
2023/02/27 11:58:15;;;;;;;3.63;1.70;;;;;;;1.83;48.79;97786.06;5063283;28;20040;-56
2023/02/27 12:00:48;;;;;;;5.35;2.03;;;;;;;1.91;50.95;97790.47;5080429;28;20047;-60